Terminal Aerodrome Forecast
Issued by NWS Midland/Odessa, TX

Home | Current Version | Previous Version | Text Only | Print | Product List | Glossary On
Versions: 1 2 3 4 5 6 7 8 9 10 11 12 13 14
998
FTUS44 KMAF 011720
TAFMAF
TAF
KMAF 011720Z 0118/0218 04014G24KT P6SM OVC035
     FM012200 03010KT P6SM BKN040=

USA.gov is the U.S. government's official web portal to all federal, state and local government web resources and services.